sensor_id;sensor_type;location;lat;lon;timestamp;P1;durP1;ratioP1;P2;durP2;ratioP2
22955;SDS011;40888;48.148;11.526;2023-12-04T00:00:35;24.10;;;17.40;;
22955;SDS011;40888;48.148;11.526;2023-12-04T00:03:00;19.97;;;16.33;;
22955;SDS011;40888;48.148;11.526;2023-12-04T00:05:26;19.93;;;15.23;;
22955;SDS011;40888;48.148;11.526;2023-12-04T00:07:52;24.30;;;18.47;;
22955;SDS011;40888;48.148;11.526;2023-12-04T00:10:17;20.87;;;17.57;;
22955;SDS011;40888;48.148;11.526;2023-12-04T00:12:43;21.77;;;17.20;;
22955;SDS011;40888;48.148;11.526;2023-12-04T00:15:09;24.37;;;17.83;;
22955;SDS011;40888;48.148;11.526;2023-12-04T00:17:35;19.70;;;15.47;;
22955;SDS011;40888;48.148;11.526;2023-12-04T00:20:05;17.30;;;14.97;;
22955;SDS011;40888;48.148;11.526;2023-12-04T00:22:31;20.97;;;15.60;;
22955;SDS011;40888;48.148;11.526;2023-12-04T00:24:57;21.67;;;16.00;;
22955;SDS011;40888;48.148;11.526;2023-12-04T00:27:23;20.33;;;16.03;;
22955;SDS011;40888;48.148;11.526;2023-12-04T00:29:52;20.13;;;15.20;;
22955;SDS011;40888;48.148;11.526;2023-12-04T00:32:18;16.80;;;13.13;;
22955;SDS011;40888;48.148;11.526;2023-12-04T00:34:43;23.30;;;17.27;;
22955;SDS011;40888;48.148;11.526;2023-12-04T00:37:09;22.23;;;17.83;;
22955;SDS011;40888;48.148;11.526;2023-12-04T00:39:34;21.73;;;17.37;;
22955;SDS011;40888;48.148;11.526;2023-12-04T00:42:00;19.77;;;15.33;;
22955;SDS011;40888;48.148;11.526;2023-12-04T00:44:26;22.20;;;17.40;;
22955;SDS011;40888;48.148;11.526;2023-12-04T00:46:51;22.87;;;17.27;;
22955;SDS011;40888;48.148;11.526;2023-12-04T00:49:17;23.30;;;17.50;;
22955;SDS011;40888;48.148;11.526;2023-12-04T00:51:42;25.63;;;19.37;;
22955;SDS011;40888;48.148;11.526;2023-12-04T00:54:08;26.67;;;19.67;;
22955;SDS011;40888;48.148;11.526;2023-12-04T00:56:34;25.63;;;18.93;;
22955;SDS011;40888;48.148;11.526;2023-12-04T00:58:59;21.00;;;17.00;;
22955;SDS011;40888;48.148;11.526;2023-12-04T01:01:25;20.63;;;16.80;;
22955;SDS011;40888;48.148;11.526;2023-12-04T01:03:51;22.20;;;17.37;;
22955;SDS011;40888;48.148;11.526;2023-12-04T01:06:22;17.83;;;14.10;;
22955;SDS011;40888;48.148;11.526;2023-12-04T01:08:49;17.93;;;13.47;;
22955;SDS011;40888;48.148;11.526;2023-12-04T01:11:15;17.07;;;14.13;;
22955;SDS011;40888;48.148;11.526;2023-12-04T01:13:41;18.03;;;14.53;;
22955;SDS011;40888;48.148;11.526;2023-12-04T01:16:07;14.27;;;11.77;;
22955;SDS011;40888;48.148;11.526;2023-12-04T01:18:34;16.23;;;13.17;;
22955;SDS011;40888;48.148;11.526;2023-12-04T01:21:00;17.50;;;13.07;;
22955;SDS011;40888;48.148;11.526;2023-12-04T01:23:26;18.30;;;14.73;;
22955;SDS011;40888;48.148;11.526;2023-12-04T01:25:51;18.60;;;13.33;;
22955;SDS011;40888;48.148;11.526;2023-12-04T01:28:17;19.13;;;15.43;;
22955;SDS011;40888;48.148;11.526;2023-12-04T01:30:42;17.50;;;14.23;;
22955;SDS011;40888;48.148;11.526;2023-12-04T01:33:08;15.93;;;12.43;;
22955;SDS011;40888;48.148;11.526;2023-12-04T01:35:34;16.97;;;12.87;;
22955;SDS011;40888;48.148;11.526;2023-12-04T01:37:59;16.17;;;12.87;;
22955;SDS011;40888;48.148;11.526;2023-12-04T01:40:25;16.83;;;13.10;;
22955;SDS011;40888;48.148;11.526;2023-12-04T01:42:51;13.97;;;11.47;;
22955;SDS011;40888;48.148;11.526;2023-12-04T01:45:17;13.80;;;10.63;;
22955;SDS011;40888;48.148;11.526;2023-12-04T01:47:44;15.77;;;11.80;;
22955;SDS011;40888;48.148;11.526;2023-12-04T01:50:10;15.93;;;12.60;;
22955;SDS011;40888;48.148;11.526;2023-12-04T01:52:38;16.73;;;12.37;;
22955;SDS011;40888;48.148;11.526;2023-12-04T01:55:04;13.33;;;10.50;;
22955;SDS011;40888;48.148;11.526;2023-12-04T01:57:32;14.50;;;12.07;;
22955;SDS011;40888;48.148;11.526;2023-12-04T01:59:57;12.50;;;10.70;;
22955;SDS011;40888;48.148;11.526;2023-12-04T02:02:24;12.40;;;9.97;;
22955;SDS011;40888;48.148;11.526;2023-12-04T02:04:50;14.80;;;10.87;;
22955;SDS011;40888;48.148;11.526;2023-12-04T02:07:16;12.33;;;10.10;;
22955;SDS011;40888;48.148;11.526;2023-12-04T02:09:42;11.80;;;9.13;;
22955;SDS011;40888;48.148;11.526;2023-12-04T02:12:07;10.53;;;9.20;;
22955;SDS011;40888;48.148;11.526;2023-12-04T02:14:34;10.00;;;8.23;;
22955;SDS011;40888;48.148;11.526;2023-12-04T02:17:00;10.43;;;7.83;;
22955;SDS011;40888;48.148;11.526;2023-12-04T02:19:27;9.73;;;8.40;;
22955;SDS011;40888;48.148;11.526;2023-12-04T02:21:52;13.37;;;8.07;;
22955;SDS011;40888;48.148;11.526;2023-12-04T02:24:18;10.77;;;7.17;;
22955;SDS011;40888;48.148;11.526;2023-12-04T02:26:46;11.23;;;8.70;;
22955;SDS011;40888;48.148;11.526;2023-12-04T02:29:17;11.70;;;9.23;;
22955;SDS011;40888;48.148;11.526;2023-12-04T02:31:51;12.83;;;9.80;;
22955;SDS011;40888;48.148;11.526;2023-12-04T02:34:17;11.00;;;8.87;;
22955;SDS011;40888;48.148;11.526;2023-12-04T02:36:45;13.97;;;9.43;;
22955;SDS011;40888;48.148;11.526;2023-12-04T02:39:12;11.37;;;7.77;;
22955;SDS011;40888;48.148;11.526;2023-12-04T02:41:37;10.73;;;8.93;;
22955;SDS011;40888;48.148;11.526;2023-12-04T02:44:03;11.63;;;8.73;;
22955;SDS011;40888;48.148;11.526;2023-12-04T02:46:29;11.93;;;8.03;;
22955;SDS011;40888;48.148;11.526;2023-12-04T02:48:54;11.97;;;9.43;;
22955;SDS011;40888;48.148;11.526;2023-12-04T02:51:20;11.60;;;9.70;;
22955;SDS011;40888;48.148;11.526;2023-12-04T02:53:46;12.00;;;9.57;;
22955;SDS011;40888;48.148;11.526;2023-12-04T02:56:11;9.67;;;8.60;;
22955;SDS011;40888;48.148;11.526;2023-12-04T02:58:37;13.67;;;8.80;;
22955;SDS011;40888;48.148;11.526;2023-12-04T03:01:03;11.07;;;8.47;;
22955;SDS011;40888;48.148;11.526;2023-12-04T03:03:28;9.83;;;8.67;;
22955;SDS011;40888;48.148;11.526;2023-12-04T03:05:54;11.40;;;8.87;;
22955;SDS011;40888;48.148;11.526;2023-12-04T03:08:20;10.73;;;8.23;;
22955;SDS011;40888;48.148;11.526;2023-12-04T03:10:45;8.73;;;7.40;;
22955;SDS011;40888;48.148;11.526;2023-12-04T03:13:11;8.83;;;7.23;;
22955;SDS011;40888;48.148;11.526;2023-12-04T03:15:36;11.53;;;8.50;;
22955;SDS011;40888;48.148;11.526;2023-12-04T03:18:02;10.13;;;7.97;;
22955;SDS011;40888;48.148;11.526;2023-12-04T03:20:28;9.87;;;7.80;;
22955;SDS011;40888;48.148;11.526;2023-12-04T03:22:53;9.13;;;7.57;;
22955;SDS011;40888;48.148;11.526;2023-12-04T03:25:19;10.73;;;7.97;;
22955;SDS011;40888;48.148;11.526;2023-12-04T03:27:45;9.83;;;7.63;;
22955;SDS011;40888;48.148;11.526;2023-12-04T03:30:10;9.87;;;7.83;;
22955;SDS011;40888;48.148;11.526;2023-12-04T03:32:36;9.77;;;7.50;;
22955;SDS011;40888;48.148;11.526;2023-12-04T03:35:02;8.73;;;7.47;;
22955;SDS011;40888;48.148;11.526;2023-12-04T03:37:28;8.93;;;7.53;;
22955;SDS011;40888;48.148;11.526;2023-12-04T03:39:53;8.23;;;7.13;;
22955;SDS011;40888;48.148;11.526;2023-12-04T03:42:19;8.43;;;7.23;;
22955;SDS011;40888;48.148;11.526;2023-12-04T03:44:44;10.80;;;8.53;;
22955;SDS011;40888;48.148;11.526;2023-12-04T03:47:10;10.60;;;8.93;;
22955;SDS011;40888;48.148;11.526;2023-12-04T03:49:36;9.23;;;7.07;;
22955;SDS011;40888;48.148;11.526;2023-12-04T03:52:02;9.03;;;7.57;;
22955;SDS011;40888;48.148;11.526;2023-12-04T03:54:28;8.77;;;7.30;;
22955;SDS011;40888;48.148;11.526;2023-12-04T03:56:53;9.83;;;7.77;;
22955;SDS011;40888;48.148;11.526;2023-12-04T03:59:19;14.07;;;8.83;;
22955;SDS011;40888;48.148;11.526;2023-12-04T04:01:45;10.77;;;8.40;;
22955;SDS011;40888;48.148;11.526;2023-12-04T04:04:10;8.93;;;7.33;;
22955;SDS011;40888;48.148;11.526;2023-12-04T04:06:36;9.50;;;8.13;;
22955;SDS011;40888;48.148;11.526;2023-12-04T04:09:03;11.23;;;8.57;;
22955;SDS011;40888;48.148;11.526;2023-12-04T04:11:29;11.13;;;8.43;;
22955;SDS011;40888;48.148;11.526;2023-12-04T04:13:55;9.10;;;7.63;;
22955;SDS011;40888;48.148;11.526;2023-12-04T04:16:21;10.10;;;8.63;;
22955;SDS011;40888;48.148;11.526;2023-12-04T04:18:47;10.87;;;9.40;;
22955;SDS011;40888;48.148;11.526;2023-12-04T04:21:12;12.57;;;10.67;;
22955;SDS011;40888;48.148;11.526;2023-12-04T04:23:38;14.40;;;11.27;;
22955;SDS011;40888;48.148;11.526;2023-12-04T04:26:03;12.60;;;10.43;;
22955;SDS011;40888;48.148;11.526;2023-12-04T04:28:29;13.83;;;10.53;;
22955;SDS011;40888;48.148;11.526;2023-12-04T04:30:55;14.17;;;11.53;;
22955;SDS011;40888;48.148;11.526;2023-12-04T04:33:20;12.20;;;10.43;;
22955;SDS011;40888;48.148;11.526;2023-12-04T04:35:46;14.67;;;11.10;;
22955;SDS011;40888;48.148;11.526;2023-12-04T04:38:12;14.77;;;10.87;;
22955;SDS011;40888;48.148;11.526;2023-12-04T04:40:37;15.53;;;11.70;;
22955;SDS011;40888;48.148;11.526;2023-12-04T04:43:07;13.07;;;10.57;;
22955;SDS011;40888;48.148;11.526;2023-12-04T04:45:33;13.37;;;11.20;;
22955;SDS011;40888;48.148;11.526;2023-12-04T04:47:58;14.33;;;11.37;;
22955;SDS011;40888;48.148;11.526;2023-12-04T04:50:24;14.40;;;11.37;;
22955;SDS011;40888;48.148;11.526;2023-12-04T04:52:50;15.87;;;11.87;;
22955;SDS011;40888;48.148;11.526;2023-12-04T04:55:15;14.80;;;11.53;;
22955;SDS011;40888;48.148;11.526;2023-12-04T04:57:41;17.53;;;12.07;;
22955;SDS011;40888;48.148;11.526;2023-12-04T05:00:06;14.57;;;11.20;;
22955;SDS011;40888;48.148;11.526;2023-12-04T05:02:32;13.13;;;11.30;;
22955;SDS011;40888;48.148;11.526;2023-12-04T05:05:00;13.23;;;11.00;;
22955;SDS011;40888;48.148;11.526;2023-12-04T05:07:27;13.93;;;11.50;;
22955;SDS011;40888;48.148;11.526;2023-12-04T05:09:53;14.97;;;11.10;;
22955;SDS011;40888;48.148;11.526;2023-12-04T05:12:19;13.17;;;10.53;;
22955;SDS011;40888;48.148;11.526;2023-12-04T05:14:45;14.87;;;10.90;;
22955;SDS011;40888;48.148;11.526;2023-12-04T05:17:10;15.63;;;11.53;;
22955;SDS011;40888;48.148;11.526;2023-12-04T05:19:36;13.63;;;10.40;;
22955;SDS011;40888;48.148;11.526;2023-12-04T05:22:01;13.70;;;10.40;;
22955;SDS011;40888;48.148;11.526;2023-12-04T05:24:27;13.00;;;10.30;;
22955;SDS011;40888;48.148;11.526;2023-12-04T05:26:53;20.33;;;11.60;;
22955;SDS011;40888;48.148;11.526;2023-12-04T05:29:18;17.93;;;12.00;;
22955;SDS011;40888;48.148;11.526;2023-12-04T05:31:44;17.67;;;13.67;;
22955;SDS011;40888;48.148;11.526;2023-12-04T05:34:10;15.47;;;12.60;;
22955;SDS011;40888;48.148;11.526;2023-12-04T05:36:35;16.40;;;10.73;;
22955;SDS011;40888;48.148;11.526;2023-12-04T05:39:01;16.80;;;11.67;;
22955;SDS011;40888;48.148;11.526;2023-12-04T05:41:26;13.43;;;10.27;;
22955;SDS011;40888;48.148;11.526;2023-12-04T05:43:52;12.70;;;9.23;;
22955;SDS011;40888;48.148;11.526;2023-12-04T05:46:18;12.33;;;9.77;;
22955;SDS011;40888;48.148;11.526;2023-12-04T05:48:44;13.37;;;9.90;;
22955;SDS011;40888;48.148;11.526;2023-12-04T05:51:09;14.60;;;10.70;;
22955;SDS011;40888;48.148;11.526;2023-12-04T05:53:36;11.73;;;8.83;;
22955;SDS011;40888;48.148;11.526;2023-12-04T05:56:02;14.73;;;10.23;;
22955;SDS011;40888;48.148;11.526;2023-12-04T05:58:29;13.07;;;9.90;;
22955;SDS011;40888;48.148;11.526;2023-12-04T06:00:55;14.03;;;9.23;;
22955;SDS011;40888;48.148;11.526;2023-12-04T06:03:20;11.87;;;9.57;;
22955;SDS011;40888;48.148;11.526;2023-12-04T06:05:46;12.57;;;9.23;;
22955;SDS011;40888;48.148;11.526;2023-12-04T06:08:12;13.97;;;10.20;;
22955;SDS011;40888;48.148;11.526;2023-12-04T06:10:37;11.83;;;9.03;;
22955;SDS011;40888;48.148;11.526;2023-12-04T06:13:03;10.67;;;8.10;;
22955;SDS011;40888;48.148;11.526;2023-12-04T06:15:29;12.90;;;9.27;;
22955;SDS011;40888;48.148;11.526;2023-12-04T06:17:54;12.03;;;8.47;;
22955;SDS011;40888;48.148;11.526;2023-12-04T06:20:20;13.03;;;9.33;;
22955;SDS011;40888;48.148;11.526;2023-12-04T06:22:46;10.93;;;8.37;;
22955;SDS011;40888;48.148;11.526;2023-12-04T06:25:12;10.17;;;8.07;;
22955;SDS011;40888;48.148;11.526;2023-12-04T06:27:38;11.20;;;8.60;;
22955;SDS011;40888;48.148;11.526;2023-12-04T06:30:04;10.13;;;7.93;;
22955;SDS011;40888;48.148;11.526;2023-12-04T06:32:31;9.67;;;8.27;;
22955;SDS011;40888;48.148;11.526;2023-12-04T06:34:57;9.23;;;7.83;;
22955;SDS011;40888;48.148;11.526;2023-12-04T06:37:23;10.47;;;8.77;;
22955;SDS011;40888;48.148;11.526;2023-12-04T06:39:49;12.67;;;9.50;;
22955;SDS011;40888;48.148;11.526;2023-12-04T06:42:17;10.63;;;8.40;;
22955;SDS011;40888;48.148;11.526;2023-12-04T06:44:43;10.53;;;8.13;;
22955;SDS011;40888;48.148;11.526;2023-12-04T06:47:09;9.80;;;8.03;;
22955;SDS011;40888;48.148;11.526;2023-12-04T06:49:37;10.87;;;7.83;;
22955;SDS011;40888;48.148;11.526;2023-12-04T06:52:03;9.57;;;7.30;;
22955;SDS011;40888;48.148;11.526;2023-12-04T06:54:29;9.77;;;8.10;;
22955;SDS011;40888;48.148;11.526;2023-12-04T06:56:55;8.57;;;7.50;;
22955;SDS011;40888;48.148;11.526;2023-12-04T06:59:21;9.57;;;7.93;;
22955;SDS011;40888;48.148;11.526;2023-12-04T07:01:47;12.57;;;9.70;;
22955;SDS011;40888;48.148;11.526;2023-12-04T07:04:12;9.23;;;7.27;;
22955;SDS011;40888;48.148;11.526;2023-12-04T07:06:39;9.47;;;8.10;;
22955;SDS011;40888;48.148;11.526;2023-12-04T07:09:05;8.70;;;7.27;;
22955;SDS011;40888;48.148;11.526;2023-12-04T07:11:34;10.50;;;8.43;;
22955;SDS011;40888;48.148;11.526;2023-12-04T07:14:00;10.60;;;8.33;;
22955;SDS011;40888;48.148;11.526;2023-12-04T07:16:25;9.53;;;8.23;;
22955;SDS011;40888;48.148;11.526;2023-12-04T07:18:51;9.90;;;8.30;;
22955;SDS011;40888;48.148;11.526;2023-12-04T07:21:16;11.80;;;9.47;;
22955;SDS011;40888;48.148;11.526;2023-12-04T07:23:42;14.87;;;10.80;;
22955;SDS011;40888;48.148;11.526;2023-12-04T07:26:08;17.43;;;12.47;;
22955;SDS011;40888;48.148;11.526;2023-12-04T07:28:33;19.13;;;13.03;;
22955;SDS011;40888;48.148;11.526;2023-12-04T07:30:59;19.70;;;15.10;;
22955;SDS011;40888;48.148;11.526;2023-12-04T07:33:26;18.20;;;13.67;;
22955;SDS011;40888;48.148;11.526;2023-12-04T07:35:52;18.80;;;14.73;;
22955;SDS011;40888;48.148;11.526;2023-12-04T07:38:18;15.23;;;13.23;;
22955;SDS011;40888;48.148;11.526;2023-12-04T07:40:47;18.37;;;12.83;;
22955;SDS011;40888;48.148;11.526;2023-12-04T07:43:13;11.13;;;9.80;;
22955;SDS011;40888;48.148;11.526;2023-12-04T07:45:42;12.40;;;10.50;;
22955;SDS011;40888;48.148;11.526;2023-12-04T07:48:08;10.20;;;8.37;;
22955;SDS011;40888;48.148;11.526;2023-12-04T07:50:34;11.57;;;7.77;;
22955;SDS011;40888;48.148;11.526;2023-12-04T07:53:00;9.50;;;7.93;;
22955;SDS011;40888;48.148;11.526;2023-12-04T07:55:26;9.10;;;8.10;;
22955;SDS011;40888;48.148;11.526;2023-12-04T07:57:52;10.37;;;8.13;;
22955;SDS011;40888;48.148;11.526;2023-12-04T08:00:18;11.07;;;8.30;;
22955;SDS011;40888;48.148;11.526;2023-12-04T08:02:44;11.63;;;8.10;;
22955;SDS011;40888;48.148;11.526;2023-12-04T08:05:11;11.20;;;8.40;;
22955;SDS011;40888;48.148;11.526;2023-12-04T08:07:37;10.90;;;8.93;;
22955;SDS011;40888;48.148;11.526;2023-12-04T08:10:03;18.23;;;15.07;;
22955;SDS011;40888;48.148;11.526;2023-12-04T08:12:29;21.73;;;16.43;;
22955;SDS011;40888;48.148;11.526;2023-12-04T08:14:55;27.67;;;19.17;;
22955;SDS011;40888;48.148;11.526;2023-12-04T08:17:20;28.17;;;20.53;;
22955;SDS011;40888;48.148;11.526;2023-12-04T08:19:46;23.57;;;19.23;;
22955;SDS011;40888;48.148;11.526;2023-12-04T08:22:12;28.43;;;21.10;;
22955;SDS011;40888;48.148;11.526;2023-12-04T08:24:37;24.47;;;18.77;;
22955;SDS011;40888;48.148;11.526;2023-12-04T08:27:03;21.40;;;16.90;;
22955;SDS011;40888;48.148;11.526;2023-12-04T08:29:29;23.97;;;18.20;;
22955;SDS011;40888;48.148;11.526;2023-12-04T08:31:54;23.23;;;16.73;;
22955;SDS011;40888;48.148;11.526;2023-12-04T08:34:20;22.67;;;16.97;;
22955;SDS011;40888;48.148;11.526;2023-12-04T08:36:45;21.40;;;16.10;;
22955;SDS011;40888;48.148;11.526;2023-12-04T08:39:11;24.47;;;18.40;;
22955;SDS011;40888;48.148;11.526;2023-12-04T08:41:37;22.03;;;18.50;;
22955;SDS011;40888;48.148;11.526;2023-12-04T08:44:03;22.87;;;18.47;;
22955;SDS011;40888;48.148;11.526;2023-12-04T08:46:28;23.43;;;17.47;;
22955;SDS011;40888;48.148;11.526;2023-12-04T08:48:54;21.13;;;17.10;;
22955;SDS011;40888;48.148;11.526;2023-12-04T08:51:20;21.10;;;17.27;;
22955;SDS011;40888;48.148;11.526;2023-12-04T08:53:45;22.47;;;17.00;;
22955;SDS011;40888;48.148;11.526;2023-12-04T08:56:11;22.77;;;18.10;;
22955;SDS011;40888;48.148;11.526;2023-12-04T08:58:37;25.40;;;19.53;;
22955;SDS011;40888;48.148;11.526;2023-12-04T09:01:03;26.43;;;19.80;;
22955;SDS011;40888;48.148;11.526;2023-12-04T09:03:29;30.47;;;19.83;;
22955;SDS011;40888;48.148;11.526;2023-12-04T09:05:58;25.80;;;20.23;;
22955;SDS011;40888;48.148;11.526;2023-12-04T09:08:24;25.57;;;18.83;;
22955;SDS011;40888;48.148;11.526;2023-12-04T09:10:53;24.97;;;18.87;;
22955;SDS011;40888;48.148;11.526;2023-12-04T09:13:18;23.90;;;18.33;;
22955;SDS011;40888;48.148;11.526;2023-12-04T09:15:44;29.17;;;21.67;;
22955;SDS011;40888;48.148;11.526;2023-12-04T09:18:09;26.33;;;19.53;;
22955;SDS011;40888;48.148;11.526;2023-12-04T09:20:35;24.83;;;19.70;;
22955;SDS011;40888;48.148;11.526;2023-12-04T09:23:01;28.37;;;20.10;;
22955;SDS011;40888;48.148;11.526;2023-12-04T09:25:26;31.00;;;22.07;;
22955;SDS011;40888;48.148;11.526;2023-12-04T09:27:52;28.13;;;21.77;;
22955;SDS011;40888;48.148;11.526;2023-12-04T09:30:18;27.13;;;20.53;;
22955;SDS011;40888;48.148;11.526;2023-12-04T09:32:44;28.87;;;21.17;;
22955;SDS011;40888;48.148;11.526;2023-12-04T09:35:10;26.00;;;21.07;;
22955;SDS011;40888;48.148;11.526;2023-12-04T09:37:36;25.07;;;19.43;;
22955;SDS011;40888;48.148;11.526;2023-12-04T09:40:01;26.47;;;20.43;;
22955;SDS011;40888;48.148;11.526;2023-12-04T09:42:29;29.20;;;21.77;;
22955;SDS011;40888;48.148;11.526;2023-12-04T09:44:55;28.27;;;21.97;;
22955;SDS011;40888;48.148;11.526;2023-12-04T09:47:22;31.00;;;22.20;;
22955;SDS011;40888;48.148;11.526;2023-12-04T09:49:50;27.37;;;20.70;;
22955;SDS011;40888;48.148;11.526;2023-12-04T09:52:17;32.10;;;24.37;;
22955;SDS011;40888;48.148;11.526;2023-12-04T09:54:44;31.10;;;23.33;;
22955;SDS011;40888;48.148;11.526;2023-12-04T09:57:10;30.93;;;24.10;;
22955;SDS011;40888;48.148;11.526;2023-12-04T09:59:37;34.57;;;25.37;;
22955;SDS011;40888;48.148;11.526;2023-12-04T10:02:04;31.30;;;24.87;;
22955;SDS011;40888;48.148;11.526;2023-12-04T10:04:31;29.57;;;21.90;;
22955;SDS011;40888;48.148;11.526;2023-12-04T10:06:57;31.63;;;24.63;;
22955;SDS011;40888;48.148;11.526;2023-12-04T10:09:23;32.73;;;24.90;;
22955;SDS011;40888;48.148;11.526;2023-12-04T10:11:52;29.03;;;22.70;;
22955;SDS011;40888;48.148;11.526;2023-12-04T10:14:21;32.97;;;25.53;;
22955;SDS011;40888;48.148;11.526;2023-12-04T10:16:47;36.77;;;25.70;;
22955;SDS011;40888;48.148;11.526;2023-12-04T10:19:18;32.33;;;24.27;;
22955;SDS011;40888;48.148;11.526;2023-12-04T10:21:49;30.80;;;24.03;;
22955;SDS011;40888;48.148;11.526;2023-12-04T10:24:28;31.93;;;23.73;;
22955;SDS011;40888;48.148;11.526;2023-12-04T10:27:01;32.07;;;23.70;;
22955;SDS011;40888;48.148;11.526;2023-12-04T10:29:30;29.67;;;23.23;;
22955;SDS011;40888;48.148;11.526;2023-12-04T10:32:12;27.43;;;21.80;;
22955;SDS011;40888;48.148;11.526;2023-12-04T10:34:38;25.60;;;22.20;;
22955;SDS011;40888;48.148;11.526;2023-12-04T10:37:07;25.73;;;21.10;;
22955;SDS011;40888;48.148;11.526;2023-12-04T10:39:47;24.60;;;21.90;;
22955;SDS011;40888;48.148;11.526;2023-12-04T10:42:24;24.63;;;19.73;;
22955;SDS011;40888;48.148;11.526;2023-12-04T10:44:51;22.97;;;19.77;;
22955;SDS011;40888;48.148;11.526;2023-12-04T10:47:19;25.80;;;20.37;;
22955;SDS011;40888;48.148;11.526;2023-12-04T10:49:48;26.17;;;21.30;;
22955;SDS011;40888;48.148;11.526;2023-12-04T10:52:15;27.27;;;21.80;;
22955;SDS011;40888;48.148;11.526;2023-12-04T10:54:41;26.50;;;22.17;;
22955;SDS011;40888;48.148;11.526;2023-12-04T10:57:06;27.20;;;22.27;;
22955;SDS011;40888;48.148;11.526;2023-12-04T10:59:36;29.13;;;23.33;;
22955;SDS011;40888;48.148;11.526;2023-12-04T11:02:04;30.50;;;23.33;;
22955;SDS011;40888;48.148;11.526;2023-12-04T11:04:33;29.13;;;24.33;;
22955;SDS011;40888;48.148;11.526;2023-12-04T11:07:03;30.90;;;25.73;;
22955;SDS011;40888;48.148;11.526;2023-12-04T11:09:31;25.53;;;20.37;;
22955;SDS011;40888;48.148;11.526;2023-12-04T11:12:01;24.33;;;20.50;;
22955;SDS011;40888;48.148;11.526;2023-12-04T11:14:34;26.77;;;22.43;;
22955;SDS011;40888;48.148;11.526;2023-12-04T11:17:08;22.20;;;19.73;;
22955;SDS011;40888;48.148;11.526;2023-12-04T11:19:40;24.60;;;21.63;;
22955;SDS011;40888;48.148;11.526;2023-12-04T11:22:08;26.10;;;21.00;;
22955;SDS011;40888;48.148;11.526;2023-12-04T11:24:35;18.13;;;14.50;;
22955;SDS011;40888;48.148;11.526;2023-12-04T11:27:01;14.80;;;13.30;;
22955;SDS011;40888;48.148;11.526;2023-12-04T11:29:28;14.47;;;12.70;;
22955;SDS011;40888;48.148;11.526;2023-12-04T11:31:55;15.10;;;13.10;;
22955;SDS011;40888;48.148;11.526;2023-12-04T11:34:20;14.67;;;12.73;;
22955;SDS011;40888;48.148;11.526;2023-12-04T11:36:46;14.87;;;13.23;;
22955;SDS011;40888;48.148;11.526;2023-12-04T11:39:12;17.03;;;12.57;;
22955;SDS011;40888;48.148;11.526;2023-12-04T11:41:40;15.40;;;13.40;;
22955;SDS011;40888;48.148;11.526;2023-12-04T11:44:11;16.30;;;14.30;;
22955;SDS011;40888;48.148;11.526;2023-12-04T11:46:56;18.27;;;14.87;;
22955;SDS011;40888;48.148;11.526;2023-12-04T11:49:28;18.10;;;14.60;;
22955;SDS011;40888;48.148;11.526;2023-12-04T11:51:58;21.53;;;16.27;;
22955;SDS011;40888;48.148;11.526;2023-12-04T11:54:25;18.57;;;14.77;;
22955;SDS011;40888;48.148;11.526;2023-12-04T11:57:10;17.60;;;15.67;;
22955;SDS011;40888;48.148;11.526;2023-12-04T11:59:41;20.67;;;17.30;;
22955;SDS011;40888;48.148;11.526;2023-12-04T12:02:10;25.73;;;19.57;;
22955;SDS011;40888;48.148;11.526;2023-12-04T12:04:36;19.93;;;17.67;;
22955;SDS011;40888;48.148;11.526;2023-12-04T12:07:07;19.50;;;17.17;;
22955;SDS011;40888;48.148;11.526;2023-12-04T12:09:33;20.37;;;17.80;;
22955;SDS011;40888;48.148;11.526;2023-12-04T12:12:00;20.23;;;18.03;;
22955;SDS011;40888;48.148;11.526;2023-12-04T12:14:26;25.03;;;20.27;;
22955;SDS011;40888;48.148;11.526;2023-12-04T12:16:54;24.70;;;20.97;;
22955;SDS011;40888;48.148;11.526;2023-12-04T12:19:20;25.63;;;21.83;;
22955;SDS011;40888;48.148;11.526;2023-12-04T12:21:47;25.03;;;21.83;;
22955;SDS011;40888;48.148;11.526;2023-12-04T12:24:17;28.20;;;22.87;;
22955;SDS011;40888;48.148;11.526;2023-12-04T12:26:43;26.10;;;22.17;;
22955;SDS011;40888;48.148;11.526;2023-12-04T12:29:10;29.90;;;23.40;;
22955;SDS011;40888;48.148;11.526;2023-12-04T12:31:36;24.83;;;22.13;;
22955;SDS011;40888;48.148;11.526;2023-12-04T12:34:01;22.40;;;19.70;;
22955;SDS011;40888;48.148;11.526;2023-12-04T12:36:28;23.40;;;18.60;;
22955;SDS011;40888;48.148;11.526;2023-12-04T12:38:54;21.80;;;18.50;;
22955;SDS011;40888;48.148;11.526;2023-12-04T12:41:19;21.13;;;17.57;;
22955;SDS011;40888;48.148;11.526;2023-12-04T12:43:45;20.77;;;18.27;;
22955;SDS011;40888;48.148;11.526;2023-12-04T12:46:12;18.70;;;16.57;;
22955;SDS011;40888;48.148;11.526;2023-12-04T12:48:38;20.73;;;17.53;;
22955;SDS011;40888;48.148;11.526;2023-12-04T12:51:04;21.63;;;19.33;;
22955;SDS011;40888;48.148;11.526;2023-12-04T12:53:34;21.10;;;18.90;;
22955;SDS011;40888;48.148;11.526;2023-12-04T12:56:00;21.20;;;18.93;;
22955;SDS011;40888;48.148;11.526;2023-12-04T12:58:26;25.07;;;20.13;;
22955;SDS011;40888;48.148;11.526;2023-12-04T13:00:52;21.53;;;19.20;;
22955;SDS011;40888;48.148;11.526;2023-12-04T13:03:18;23.17;;;20.27;;
22955;SDS011;40888;48.148;11.526;2023-12-04T13:05:44;22.93;;;20.43;;
22955;SDS011;40888;48.148;11.526;2023-12-04T13:08:10;19.97;;;17.77;;
22955;SDS011;40888;48.148;11.526;2023-12-04T13:10:36;20.03;;;17.33;;
22955;SDS011;40888;48.148;11.526;2023-12-04T13:13:02;20.00;;;17.90;;
22955;SDS011;40888;48.148;11.526;2023-12-04T13:15:28;20.00;;;17.87;;
22955;SDS011;40888;48.148;11.526;2023-12-04T13:17:54;21.13;;;17.30;;
22955;SDS011;40888;48.148;11.526;2023-12-04T13:20:21;19.57;;;17.57;;
22955;SDS011;40888;48.148;11.526;2023-12-04T13:22:48;18.27;;;16.27;;
22955;SDS011;40888;48.148;11.526;2023-12-04T13:25:14;19.93;;;17.33;;
22955;SDS011;40888;48.148;11.526;2023-12-04T13:27:40;19.83;;;17.00;;
22955;SDS011;40888;48.148;11.526;2023-12-04T13:30:06;20.00;;;16.93;;
22955;SDS011;40888;48.148;11.526;2023-12-04T13:32:33;18.60;;;16.40;;
22955;SDS011;40888;48.148;11.526;2023-12-04T13:35:00;19.27;;;16.13;;
22955;SDS011;40888;48.148;11.526;2023-12-04T13:37:26;19.37;;;17.47;;
22955;SDS011;40888;48.148;11.526;2023-12-04T13:39:53;20.37;;;16.73;;
22955;SDS011;40888;48.148;11.526;2023-12-04T13:42:26;19.97;;;17.87;;
22955;SDS011;40888;48.148;11.526;2023-12-04T13:45:11;20.03;;;17.83;;
22955;SDS011;40888;48.148;11.526;2023-12-04T13:47:40;23.77;;;19.97;;
22955;SDS011;40888;48.148;11.526;2023-12-04T13:50:06;23.27;;;20.60;;
22955;SDS011;40888;48.148;11.526;2023-12-04T13:52:35;22.77;;;19.83;;
22955;SDS011;40888;48.148;11.526;2023-12-04T13:55:02;21.50;;;19.30;;
22955;SDS011;40888;48.148;11.526;2023-12-04T13:57:38;22.97;;;20.40;;
22955;SDS011;40888;48.148;11.526;2023-12-04T14:00:19;23.83;;;21.33;;
22955;SDS011;40888;48.148;11.526;2023-12-04T14:02:45;26.07;;;21.70;;
22955;SDS011;40888;48.148;11.526;2023-12-04T14:05:10;30.17;;;24.17;;
22955;SDS011;40888;48.148;11.526;2023-12-04T14:07:40;23.97;;;21.43;;
22955;SDS011;40888;48.148;11.526;2023-12-04T14:10:08;28.10;;;23.40;;